createdAt,value
2022-11-13T00:00:05.859Z,14.57
2022-11-13T00:02:35.335Z,14.13
2022-11-13T00:05:02.586Z,15.50
2022-11-13T00:07:29.287Z,16.57
2022-11-13T00:09:55.988Z,15.30
2022-11-13T00:12:22.637Z,13.50
2022-11-13T00:14:49.330Z,14.77
2022-11-13T00:17:15.992Z,16.97
2022-11-13T00:19:42.655Z,15.53
2022-11-13T00:22:09.311Z,14.57
2022-11-13T00:24:36.225Z,14.60
2022-11-13T00:27:02.907Z,12.77
2022-11-13T00:29:29.566Z,13.47
2022-11-13T00:31:56.221Z,12.83
2022-11-13T00:37:09.553Z,12.70
2022-11-13T00:39:36.176Z,13.20
2022-11-13T00:42:02.760Z,12.60
2022-11-13T00:44:29.414Z,10.60
2022-11-13T00:46:56.037Z,11.57
2022-11-13T00:49:22.673Z,11.00
2022-11-13T00:51:49.335Z,9.87
2022-11-13T00:54:16.088Z,10.27
2022-11-13T00:56:42.738Z,10.50
2022-11-13T00:59:09.397Z,10.03
2022-11-13T01:01:36.078Z,10.73
2022-11-13T01:04:02.751Z,10.90
2022-11-13T01:06:29.427Z,9.47
2022-11-13T01:08:57.221Z,10.17
2022-11-13T01:11:26.677Z,10.00
2022-11-13T01:13:53.978Z,9.07
2022-11-13T01:16:23.201Z,9.33
2022-11-13T01:18:53.873Z,9.50
2022-11-13T01:21:26.295Z,9.53
2022-11-13T01:23:54.562Z,9.40
2022-11-13T01:26:24.178Z,8.90
2022-11-13T01:28:50.906Z,8.70
2022-11-13T01:31:21.114Z,9.43
2022-11-13T01:33:48.788Z,8.37
2022-11-13T01:36:26.664Z,8.73
2022-11-13T01:38:53.831Z,8.90
2022-11-13T01:41:26.685Z,9.53
2022-11-13T01:43:55.258Z,9.20
2022-11-13T01:46:27.863Z,8.60
2022-11-13T01:48:54.604Z,8.73
2022-11-13T01:51:48.172Z,9.17
2022-11-13T01:54:21.778Z,8.30
2022-11-13T01:56:48.951Z,8.63
2022-11-13T01:59:18.929Z,8.27
2022-11-13T02:01:45.654Z,8.10
2022-11-13T02:04:12.652Z,8.23
2022-11-13T02:06:49.513Z,8.13
2022-11-13T02:09:18.570Z,8.43
2022-11-13T02:11:45.335Z,7.67
2022-11-13T02:14:12.892Z,7.70
2022-11-13T02:16:40.491Z,7.70
2022-11-13T02:19:13.326Z,7.93
2022-11-13T02:22:18.480Z,8.10
2022-11-13T02:24:48.733Z,7.87
2022-11-13T02:27:33.476Z,7.83
2022-11-13T02:30:15.905Z,8.00
2022-11-13T02:32:47.950Z,7.83
2022-11-13T02:35:17.628Z,7.33
2022-11-13T02:37:44.513Z,7.20
2022-11-13T02:40:11.918Z,8.87
2022-11-13T02:42:38.558Z,8.20
2022-11-13T02:45:06.431Z,8.03
2022-11-13T02:47:33.625Z,7.77
2022-11-13T02:50:00.289Z,7.67
2022-11-13T02:52:27.381Z,7.27
2022-11-13T02:54:54.071Z,7.73
2022-11-13T02:57:20.715Z,7.77
2022-11-13T02:59:47.488Z,7.53
2022-11-13T03:02:14.122Z,8.00
2022-11-13T03:05:10.344Z,7.40
2022-11-13T03:07:27.846Z,7.40
2022-11-13T03:09:54.911Z,7.70
2022-11-13T03:12:21.669Z,7.63
2022-11-13T03:14:48.374Z,7.60
2022-11-13T03:17:15.000Z,7.33
2022-11-13T03:19:41.633Z,7.47
2022-11-13T03:22:08.295Z,7.53
2022-11-13T03:24:34.983Z,7.63
2022-11-13T03:27:02.238Z,7.63
2022-11-13T03:29:28.902Z,7.67
2022-11-13T03:31:55.533Z,7.13
2022-11-13T03:34:22.254Z,7.27
2022-11-13T03:36:48.873Z,6.97
2022-11-13T03:39:15.564Z,7.07
2022-11-13T03:41:42.203Z,6.87
2022-11-13T03:44:08.992Z,7.10
2022-11-13T03:46:35.644Z,6.93
2022-11-13T03:49:02.380Z,6.70
2022-11-13T03:51:29.015Z,6.50
2022-11-13T03:53:55.642Z,6.57
2022-11-13T03:56:22.307Z,6.43
2022-11-13T03:58:49.836Z,7.20
2022-11-13T04:01:16.758Z,7.00
2022-11-13T04:03:43.430Z,6.20
2022-11-13T04:06:10.087Z,6.30
2022-11-13T04:08:36.862Z,6.80
2022-11-13T04:11:12.354Z,6.83
2022-11-13T04:13:39.273Z,6.77
2022-11-13T04:16:06.440Z,6.60
2022-11-13T04:18:33.573Z,6.43
2022-11-13T04:21:02.111Z,6.50
2022-11-13T04:23:28.823Z,6.40
2022-11-13T04:25:55.466Z,6.00
2022-11-13T04:28:22.236Z,6.27
2022-11-13T04:30:49.155Z,6.30
2022-11-13T04:33:15.818Z,6.10
2022-11-13T04:35:45.624Z,6.70
2022-11-13T04:38:12.927Z,6.30
2022-11-13T04:40:40.478Z,6.60
2022-11-13T04:43:07.180Z,7.30
2022-11-13T04:45:33.861Z,6.23
2022-11-13T04:48:00.749Z,6.43
2022-11-13T04:50:27.575Z,6.37
2022-11-13T04:52:55.768Z,7.07
2022-11-13T04:55:22.378Z,6.93
2022-11-13T04:57:51.519Z,6.73
2022-11-13T05:00:18.523Z,6.90
2022-11-13T05:02:45.334Z,7.93
2022-11-13T05:05:11.982Z,6.97
2022-11-13T05:07:38.672Z,7.30
2022-11-13T05:10:06.140Z,7.30
2022-11-13T05:12:32.769Z,7.13
2022-11-13T05:14:59.389Z,7.93
2022-11-13T05:17:26.016Z,6.93
2022-11-13T05:19:52.687Z,7.83
2022-11-13T05:22:19.312Z,7.03
2022-11-13T05:24:45.986Z,6.73
2022-11-13T05:27:17.063Z,6.37
2022-11-13T05:29:44.503Z,6.17
2022-11-13T05:32:11.132Z,6.23
2022-11-13T05:34:37.769Z,6.13
2022-11-13T05:37:04.406Z,6.53
2022-11-13T05:39:31.061Z,5.67
2022-11-13T05:41:57.698Z,5.90
2022-11-13T05:44:24.325Z,5.10
2022-11-13T05:46:50.958Z,5.00
2022-11-13T05:49:17.664Z,5.57
2022-11-13T05:51:44.326Z,5.40
2022-11-13T05:54:11.411Z,5.60
2022-11-13T05:56:38.364Z,5.40
2022-11-13T05:59:05.468Z,5.47
2022-11-13T06:01:39.997Z,5.43
2022-11-13T06:04:07.835Z,5.10
2022-11-13T06:06:34.633Z,5.10
2022-11-13T06:09:02.742Z,4.87
2022-11-13T06:11:30.805Z,4.63
2022-11-13T06:13:58.593Z,5.10
2022-11-13T06:16:33.420Z,4.67
2022-11-13T06:19:02.018Z,4.93
2022-11-13T06:21:33.478Z,4.93
2022-11-13T06:24:01.470Z,4.33
2022-11-13T06:26:33.385Z,5.00
2022-11-13T06:29:01.472Z,4.97
2022-11-13T06:31:30.549Z,5.10
2022-11-13T06:33:59.177Z,4.17
2022-11-13T06:36:31.131Z,4.13
2022-11-13T06:38:58.092Z,4.73
2022-11-13T06:41:27.047Z,4.70
2022-11-13T06:43:54.980Z,4.30
2022-11-13T06:46:28.026Z,4.47
2022-11-13T06:48:54.799Z,4.27
2022-11-13T06:51:26.929Z,4.40
2022-11-13T06:53:53.700Z,4.63
2022-11-13T06:56:20.662Z,4.33
2022-11-13T06:58:47.441Z,4.47
2022-11-13T07:01:16.789Z,4.33
2022-11-13T07:03:43.710Z,4.33
2022-11-13T07:06:16.058Z,4.00
2022-11-13T07:08:43.559Z,4.10
2022-11-13T07:11:12.457Z,4.00
2022-11-13T07:13:39.302Z,4.07
2022-11-13T07:16:16.220Z,4.17
2022-11-13T07:18:44.026Z,4.03
2022-11-13T07:21:12.417Z,3.73
2022-11-13T07:23:43.457Z,4.07
2022-11-13T07:26:11.311Z,4.10
2022-11-13T07:28:38.250Z,4.10
2022-11-13T07:31:05.487Z,4.33
2022-11-13T07:33:32.176Z,4.00
2022-11-13T07:35:59.219Z,3.87
2022-11-13T07:38:26.128Z,4.33
2022-11-13T07:40:53.822Z,3.97
2022-11-13T07:43:20.583Z,4.07
2022-11-13T07:45:47.409Z,4.50
2022-11-13T07:48:14.129Z,4.50
2022-11-13T07:50:40.808Z,3.90
2022-11-13T07:53:08.755Z,4.20
2022-11-13T07:55:36.113Z,4.43
2022-11-13T07:58:03.654Z,4.53
2022-11-13T08:00:32.986Z,4.57
2022-11-13T08:03:05.369Z,4.03
2022-11-13T08:05:32.045Z,4.57
2022-11-13T08:07:58.678Z,4.40
2022-11-13T08:10:25.321Z,4.40
2022-11-13T08:13:01.694Z,4.27
2022-11-13T08:15:29.614Z,4.60
2022-11-13T08:17:57.557Z,4.57
2022-11-13T08:20:24.900Z,4.70
2022-11-13T08:22:51.978Z,4.90
2022-11-13T08:25:19.026Z,4.50
2022-11-13T08:27:45.916Z,4.87
2022-11-13T08:30:13.543Z,4.90
2022-11-13T08:32:40.235Z,4.83
2022-11-13T08:35:07.186Z,4.97
2022-11-13T08:37:34.160Z,5.00
2022-11-13T08:40:03.977Z,5.30
2022-11-13T08:42:30.602Z,4.87
2022-11-13T08:44:57.253Z,5.03
2022-11-13T08:47:29.157Z,4.77
2022-11-13T08:49:56.575Z,4.70
2022-11-13T08:52:23.424Z,5.13
2022-11-13T08:54:50.157Z,5.73
2022-11-13T08:57:16.896Z,4.70
2022-11-13T08:59:43.528Z,4.83
2022-11-13T09:02:14.817Z,4.33
2022-11-13T09:04:42.377Z,4.40
2022-11-13T09:07:09.419Z,4.70
2022-11-13T09:09:36.173Z,4.90
2022-11-13T09:12:02.843Z,5.40
2022-11-13T09:14:30.580Z,4.80
2022-11-13T09:16:57.623Z,5.60
2022-11-13T09:19:25.583Z,5.10
2022-11-13T09:21:52.551Z,5.40
2022-11-13T09:24:19.499Z,5.30
2022-11-13T09:26:46.151Z,5.63
2022-11-13T09:29:12.781Z,5.17
2022-11-13T09:31:41.153Z,5.17
2022-11-13T09:34:08.847Z,5.30
2022-11-13T09:36:35.632Z,5.50
2022-11-13T09:39:02.655Z,5.47
2022-11-13T09:41:33.510Z,5.20
2022-11-13T09:44:03.353Z,5.33
2022-11-13T09:46:32.826Z,5.53
2022-11-13T09:49:06.584Z,6.00
2022-11-13T09:51:36.429Z,5.70
2022-11-13T09:54:06.150Z,5.70
2022-11-13T09:56:58.479Z,5.77
2022-11-13T09:59:32.524Z,6.10
2022-11-13T10:02:01.930Z,6.07
2022-11-13T10:04:43.149Z,6.30
2022-11-13T10:07:35.686Z,6.23
2022-11-13T10:10:16.234Z,6.40
2022-11-13T10:12:45.712Z,6.17
2022-11-13T10:15:12.511Z,5.50
2022-11-13T10:17:39.965Z,5.83
2022-11-13T10:20:22.624Z,5.47
2022-11-13T10:23:25.179Z,5.63
2022-11-13T10:25:52.543Z,5.23
2022-11-13T10:31:13.587Z,5.20
2022-11-13T10:33:40.422Z,5.23
2022-11-13T10:36:10.154Z,4.97
2022-11-13T10:38:44.567Z,5.10
2022-11-13T10:41:19.313Z,5.40
2022-11-13T10:44:02.827Z,5.17
2022-11-13T10:46:30.661Z,5.70
2022-11-13T10:48:58.627Z,5.37
2022-11-13T10:51:30.493Z,4.93
2022-11-13T10:53:59.185Z,5.63
2022-11-13T10:56:33.779Z,4.57
2022-11-13T10:59:13.478Z,5.20
2022-11-13T11:01:43.157Z,5.00
2022-11-13T11:04:22.152Z,5.30
2022-11-13T11:07:19.172Z,5.17
2022-11-13T11:09:38.481Z,5.47
2022-11-13T11:12:17.298Z,5.03
2022-11-13T11:14:50.309Z,5.70
2022-11-13T11:17:19.436Z,5.60
2022-11-13T11:19:52.535Z,5.50
2022-11-13T11:22:23.145Z,5.87
2022-11-13T11:24:55.745Z,5.40
2022-11-13T11:27:34.020Z,5.83
2022-11-13T11:30:16.286Z,5.60
2022-11-13T11:32:48.355Z,6.20
2022-11-13T11:35:19.545Z,5.97
2022-11-13T11:37:54.416Z,6.73
2022-11-13T11:40:29.484Z,6.10
2022-11-13T11:43:12.844Z,6.07
2022-11-13T11:45:44.890Z,5.80
2022-11-13T11:48:17.650Z,5.37
2022-11-13T11:50:48.853Z,6.20
2022-11-13T11:53:34.442Z,5.97
2022-11-13T11:56:16.306Z,6.17
2022-11-13T11:59:04.386Z,5.73
2022-11-13T12:01:34.038Z,6.40
2022-11-13T12:04:44.957Z,5.60
2022-11-13T12:07:20.737Z,6.03
2022-11-13T12:09:56.628Z,5.93
2022-11-13T12:12:46.415Z,6.17
2022-11-13T12:15:28.714Z,5.90
2022-11-13T12:18:38.272Z,5.87
2022-11-13T12:21:16.449Z,5.27
2022-11-13T12:23:50.235Z,6.10
2022-11-13T12:26:50.767Z,5.60
2022-11-13T12:29:59.100Z,5.70
2022-11-13T12:32:37.498Z,5.70
2022-11-13T12:35:19.426Z,6.10
2022-11-13T12:38:08.765Z,6.13
2022-11-13T12:40:44.972Z,6.27
2022-11-13T12:43:46.239Z,7.43
2022-11-13T12:48:50.613Z,6.17
2022-11-13T12:51:18.735Z,6.30
2022-11-13T12:53:45.389Z,6.67
2022-11-13T12:56:24.116Z,6.50
2022-11-13T12:59:30.389Z,5.90
2022-11-13T13:02:07.314Z,5.80
2022-11-13T13:05:07.456Z,5.37
2022-11-13T13:07:44.191Z,5.70
2022-11-13T13:10:10.836Z,6.23
2022-11-13T13:13:23.733Z,5.90
2022-11-13T13:16:11.832Z,6.00
2022-11-13T13:18:39.952Z,6.00
2022-11-13T13:21:08.620Z,5.90
2022-11-13T13:23:38.578Z,6.33
2022-11-13T13:26:17.752Z,5.43
2022-11-13T13:28:50.182Z,5.97
2022-11-13T13:31:45.045Z,5.57
2022-11-13T13:34:39.704Z,6.00
2022-11-13T13:37:39.661Z,6.07
2022-11-13T13:41:00.473Z,5.77
2022-11-13T13:43:40.474Z,5.60
2022-11-13T13:46:10.186Z,5.87
2022-11-13T13:48:42.457Z,5.90
2022-11-13T13:51:26.550Z,5.40
2022-11-13T13:53:56.700Z,5.80
2022-11-13T13:56:24.217Z,5.63
2022-11-13T13:58:51.469Z,5.40
2022-11-13T14:01:37.149Z,5.47
2022-11-13T14:04:05.948Z,5.23
2022-11-13T14:06:33.063Z,5.53
2022-11-13T14:09:21.529Z,6.17
2022-11-13T14:11:48.545Z,5.00
2022-11-13T14:14:20.859Z,5.93
2022-11-13T14:16:49.268Z,6.10
2022-11-13T14:19:17.404Z,6.43
2022-11-13T14:21:45.609Z,5.87
2022-11-13T14:24:23.295Z,6.17
2022-11-13T14:26:52.319Z,5.80
2022-11-13T14:29:39.512Z,6.30
2022-11-13T14:32:11.417Z,6.03
2022-11-13T14:34:38.319Z,5.87
2022-11-13T14:37:35.593Z,5.70
2022-11-13T14:40:06.117Z,6.07
2022-11-13T14:42:38.966Z,5.90
2022-11-13T14:45:41.221Z,6.70
2022-11-13T14:48:18.992Z,5.73
2022-11-13T14:50:53.228Z,5.13
2022-11-13T14:53:32.848Z,5.10
2022-11-13T14:56:09.536Z,5.50
2022-11-13T14:58:43.890Z,5.10
2022-11-13T15:01:24.623Z,5.50
2022-11-13T15:03:52.646Z,5.60
2022-11-13T15:06:27.436Z,5.50
2022-11-13T15:08:58.415Z,5.23
2022-11-13T15:11:28.648Z,25.80
2022-11-13T15:14:03.024Z,13.07
2022-11-13T15:16:31.452Z,10.00
2022-11-13T15:19:20.019Z,10.27
2022-11-13T15:22:05.462Z,7.67
2022-11-13T15:24:29.962Z,7.23
2022-11-13T15:26:56.678Z,7.77
2022-11-13T15:29:23.389Z,7.10
2022-11-13T15:31:50.151Z,7.60
2022-11-13T15:34:17.003Z,7.70
2022-11-13T15:36:45.791Z,7.57
2022-11-13T15:39:23.086Z,7.73
2022-11-13T15:41:50.751Z,7.03
2022-11-13T15:44:17.570Z,7.70
2022-11-13T15:46:44.248Z,7.37
2022-11-13T15:49:10.927Z,7.37
2022-11-13T15:51:41.420Z,7.20
2022-11-13T15:54:20.551Z,12.57
2022-11-13T15:56:49.745Z,8.00
2022-11-13T15:59:16.654Z,8.07
2022-11-13T16:01:43.718Z,7.90
2022-11-13T16:04:13.052Z,8.03
2022-11-13T16:06:40.685Z,8.10
2022-11-13T16:09:14.025Z,8.03
2022-11-13T16:11:41.373Z,8.33
2022-11-13T16:14:08.942Z,9.13
2022-11-13T16:16:38.071Z,8.77
2022-11-13T16:19:14.383Z,10.50
2022-11-13T16:21:41.227Z,14.67
2022-11-13T16:24:11.184Z,31.27
2022-11-13T16:26:38.626Z,22.80
2022-11-13T16:29:23.975Z,30.37
2022-11-13T16:31:50.891Z,25.50
2022-11-13T16:34:17.599Z,23.37
2022-11-13T16:36:44.728Z,25.40
2022-11-13T16:39:16.402Z,20.03
2022-11-13T16:41:43.220Z,22.80
2022-11-13T16:44:09.949Z,19.77
2022-11-13T16:46:39.432Z,19.60
2022-11-13T16:49:06.130Z,19.00
2022-11-13T16:51:32.797Z,16.90
2022-11-13T16:53:59.474Z,15.60
2022-11-13T16:56:29.073Z,15.20
2022-11-13T16:58:59.081Z,14.57
2022-11-13T17:01:26.568Z,13.67
2022-11-13T17:03:53.443Z,13.10
2022-11-13T17:06:28.314Z,11.50
2022-11-13T17:08:57.376Z,13.00
2022-11-13T17:11:25.749Z,11.47
2022-11-13T17:14:00.314Z,12.40
2022-11-13T17:16:28.306Z,11.53
2022-11-13T17:18:56.012Z,11.90
2022-11-13T17:21:24.624Z,11.13
2022-11-13T17:23:58.747Z,9.97
2022-11-13T17:26:26.007Z,9.93
2022-11-13T17:28:53.249Z,10.83
2022-11-13T17:31:20.762Z,10.30
2022-11-13T17:33:47.981Z,10.73
2022-11-13T17:36:14.798Z,10.83
2022-11-13T17:38:41.634Z,10.47
2022-11-13T17:41:10.958Z,11.10
2022-11-13T17:43:38.879Z,9.63
2022-11-13T17:46:06.574Z,9.73
2022-11-13T17:48:34.182Z,10.27
2022-11-13T17:51:07.210Z,11.43
2022-11-13T17:53:36.804Z,10.53
2022-11-13T17:56:07.170Z,10.57
2022-11-13T17:58:42.144Z,10.93
2022-11-13T18:01:12.983Z,10.10
2022-11-13T18:03:39.954Z,12.83
2022-11-13T18:06:09.462Z,10.67
2022-11-13T18:08:38.703Z,12.53
2022-11-13T18:11:17.467Z,12.43
2022-11-13T18:13:44.884Z,11.97
2022-11-13T18:16:19.079Z,11.53
2022-11-13T18:18:55.159Z,10.97
2022-11-13T18:21:26.174Z,12.13
2022-11-13T18:24:08.058Z,12.30
2022-11-13T18:26:34.886Z,10.33
2022-11-13T18:29:02.201Z,11.37
2022-11-13T18:31:29.597Z,12.07
2022-11-13T18:33:59.084Z,10.93
2022-11-13T18:36:26.170Z,13.13
2022-11-13T18:38:52.871Z,10.90
2022-11-13T18:41:21.261Z,11.27
2022-11-13T18:43:49.967Z,10.40
2022-11-13T18:46:19.140Z,11.87
2022-11-13T18:48:47.076Z,11.27
2022-11-13T18:51:15.546Z,11.03
2022-11-13T18:53:43.797Z,11.77
2022-11-13T18:56:14.111Z,12.00
2022-11-13T18:58:42.179Z,14.70
2022-11-13T19:01:10.261Z,12.97
2022-11-13T19:03:38.136Z,16.03
2022-11-13T19:06:09.386Z,12.67
2022-11-13T19:08:40.744Z,15.03
2022-11-13T19:11:10.758Z,14.53
2022-11-13T19:13:38.687Z,15.27
2022-11-13T19:16:07.337Z,14.37
2022-11-13T19:18:34.378Z,15.53
2022-11-13T19:21:09.811Z,16.63
2022-11-13T19:23:36.823Z,15.90
2022-11-13T19:26:04.617Z,15.17
2022-11-13T19:28:31.752Z,15.57
2022-11-13T19:30:58.599Z,15.00
2022-11-13T19:33:26.424Z,14.97
2022-11-13T19:35:54.928Z,14.67
2022-11-13T19:38:22.349Z,15.07
2022-11-13T19:40:51.560Z,15.77
2022-11-13T19:43:18.647Z,14.43
2022-11-13T19:45:45.522Z,14.60
2022-11-13T19:48:17.553Z,15.47
2022-11-13T19:50:47.305Z,14.57
2022-11-13T19:53:16.851Z,15.43
2022-11-13T19:55:43.601Z,13.77
2022-11-13T19:58:10.346Z,13.73
2022-11-13T20:00:37.125Z,15.63
2022-11-13T20:03:07.679Z,15.03
2022-11-13T20:05:34.648Z,13.00
2022-11-13T20:08:01.433Z,13.70
2022-11-13T20:10:28.133Z,13.53
2022-11-13T20:12:54.881Z,15.63
2022-11-13T20:15:21.586Z,12.97
2022-11-13T20:17:48.304Z,13.10
2022-11-13T20:20:15.327Z,13.67
2022-11-13T20:22:42.183Z,11.93
2022-11-13T20:25:09.361Z,11.80
2022-11-13T20:27:37.479Z,13.07
2022-11-13T20:30:04.912Z,12.10
2022-11-13T20:32:31.554Z,14.23
2022-11-13T20:34:58.286Z,13.87
2022-11-13T20:37:25.014Z,14.70
2022-11-13T20:39:52.027Z,12.23
2022-11-13T20:42:18.722Z,14.43
2022-11-13T20:44:45.445Z,14.77
2022-11-13T20:47:12.285Z,13.53
2022-11-13T20:49:39.213Z,16.20
2022-11-13T20:52:08.237Z,15.43
2022-11-13T20:54:36.463Z,12.87
2022-11-13T20:57:03.318Z,13.57
2022-11-13T20:59:30.293Z,14.63
2022-11-13T21:01:57.095Z,14.87
2022-11-13T21:04:23.754Z,14.30
2022-11-13T21:06:52.444Z,15.07
2022-11-13T21:09:19.325Z,16.07
2022-11-13T21:11:46.101Z,13.27
2022-11-13T21:14:12.783Z,14.93
2022-11-13T21:16:39.563Z,14.30
2022-11-13T21:19:06.560Z,12.50
2022-11-13T21:21:33.276Z,13.97
2022-11-13T21:24:00.108Z,15.90
2022-11-13T21:26:28.339Z,13.27
2022-11-13T21:29:00.118Z,13.67
2022-11-13T21:31:27.098Z,15.17
2022-11-13T21:33:57.809Z,13.53
2022-11-13T21:36:26.959Z,14.33
2022-11-13T21:38:54.742Z,13.67
2022-11-13T21:41:22.795Z,14.23
2022-11-13T21:43:56.830Z,14.17
2022-11-13T21:46:25.234Z,13.97
2022-11-13T21:49:05.879Z,15.33
2022-11-13T21:51:33.727Z,14.57
2022-11-13T21:54:00.943Z,14.63
2022-11-13T21:56:29.114Z,12.77
2022-11-13T21:58:56.240Z,13.73
2022-11-13T22:01:24.180Z,12.43
2022-11-13T22:03:51.063Z,13.60
2022-11-13T22:06:19.226Z,14.27
2022-11-13T22:08:55.851Z,12.67
2022-11-13T22:11:23.874Z,13.30
2022-11-13T22:13:50.737Z,13.93
2022-11-13T22:16:17.744Z,13.60
2022-11-13T22:18:44.915Z,14.83
2022-11-13T22:21:13.697Z,13.63
2022-11-13T22:23:40.983Z,13.93
2022-11-13T22:26:17.850Z,12.47
2022-11-13T22:28:45.832Z,14.10
2022-11-13T22:31:21.904Z,11.47
2022-11-13T22:33:51.477Z,11.90
2022-11-13T22:36:23.294Z,10.40
2022-11-13T22:38:52.147Z,11.47
2022-11-13T22:41:28.341Z,10.47
2022-11-13T22:44:00.843Z,10.47
2022-11-13T22:46:29.706Z,10.83
2022-11-13T22:48:58.027Z,9.87
2022-11-13T22:51:30.615Z,11.13
2022-11-13T22:54:02.399Z,8.97
2022-11-13T22:56:31.337Z,10.03
2022-11-13T22:59:00.638Z,8.90
2022-11-13T23:01:30.024Z,8.63
2022-11-13T23:03:57.829Z,8.33
2022-11-13T23:06:26.714Z,8.30
2022-11-13T23:08:53.620Z,8.10
2022-11-13T23:11:26.468Z,7.70
2022-11-13T23:13:55.790Z,8.97
2022-11-13T23:16:23.777Z,8.20
2022-11-13T23:18:51.551Z,7.80
2022-11-13T23:21:18.906Z,7.90
2022-11-13T23:23:45.615Z,7.27
2022-11-13T23:26:13.448Z,7.30
2022-11-13T23:28:40.539Z,8.00
2022-11-13T23:31:07.906Z,7.13
2022-11-13T23:33:34.714Z,7.97
2022-11-13T23:36:01.825Z,7.93
2022-11-13T23:38:28.993Z,7.13
2022-11-13T23:40:57.056Z,7.20
2022-11-13T23:43:36.458Z,8.00
2022-11-13T23:46:11.725Z,6.90
2022-11-13T23:48:40.123Z,7.70
2022-11-13T23:51:07.470Z,6.93
2022-11-13T23:53:34.391Z,7.23
2022-11-13T23:56:01.424Z,8.13
2022-11-13T23:58:28.684Z,7.03
